createdAt,value
2022-12-05T00:01:17.270Z,20.13
2022-12-05T00:03:48.635Z,19.42
2022-12-05T00:06:23.102Z,19.20
2022-12-05T00:08:54.152Z,20.50
2022-12-05T00:11:26.961Z,19.70
2022-12-05T00:14:02.383Z,19.25
2022-12-05T00:16:34.910Z,18.30
2022-12-05T00:19:07.315Z,20.65
2022-12-05T00:21:39.981Z,20.15
2022-12-05T00:24:14.103Z,20.92
2022-12-05T00:26:47.135Z,20.60
2022-12-05T00:29:21.129Z,18.75
2022-12-05T00:31:52.265Z,19.27
2022-12-05T00:34:23.022Z,20.13
2022-12-05T00:36:54.074Z,19.52
2022-12-05T00:39:24.929Z,18.90
2022-12-05T00:41:57.809Z,19.63
2022-12-05T00:44:32.626Z,21.50
2022-12-05T00:47:04.474Z,19.10
2022-12-05T00:49:35.385Z,20.33
2022-12-05T00:52:06.454Z,20.00
2022-12-05T00:54:38.270Z,19.77
2022-12-05T00:57:09.503Z,19.52
2022-12-05T00:59:43.295Z,21.53
2022-12-05T01:02:16.354Z,20.10
2022-12-05T01:04:49.450Z,21.05
2022-12-05T01:07:20.225Z,20.93
2022-12-05T01:09:51.386Z,20.77
2022-12-05T01:12:22.156Z,20.60
2022-12-05T01:14:55.500Z,20.70
2022-12-05T01:17:26.344Z,19.97
2022-12-05T01:19:57.663Z,18.98
2022-12-05T01:22:28.580Z,20.70
2022-12-05T01:24:59.397Z,21.03
2022-12-05T01:27:31.534Z,20.03
2022-12-05T01:30:07.891Z,20.80
2022-12-05T01:32:38.829Z,20.17
2022-12-05T01:35:10.626Z,20.60
2022-12-05T01:37:41.503Z,19.97
2022-12-05T01:40:14.585Z,21.40
2022-12-05T01:42:46.648Z,20.47
2022-12-05T01:45:26.477Z,20.90
2022-12-05T01:47:57.608Z,21.70
2022-12-05T01:50:29.927Z,21.00
2022-12-05T01:53:01.597Z,20.77
2022-12-05T01:55:32.681Z,21.30
2022-12-05T01:58:04.653Z,20.97
2022-12-05T02:00:38.191Z,20.03
2022-12-05T02:03:12.295Z,20.57
2022-12-05T02:05:43.394Z,20.60
2022-12-05T02:08:14.797Z,20.85
2022-12-05T02:10:53.025Z,19.77
2022-12-05T02:13:39.699Z,19.30
2022-12-05T02:16:22.171Z,19.90
2022-12-05T02:19:02.919Z,21.20
2022-12-05T02:22:08.697Z,20.70
2022-12-05T02:25:18.668Z,20.90
2022-12-05T02:28:21.730Z,20.37
2022-12-05T02:30:59.978Z,19.93
2022-12-05T02:33:38.375Z,21.10
2022-12-05T02:36:14.270Z,19.83
2022-12-05T02:38:53.854Z,19.50
2022-12-05T02:41:30.525Z,21.35
2022-12-05T02:44:05.967Z,19.57
2022-12-05T02:46:42.972Z,21.00
2022-12-05T02:49:17.600Z,19.35
2022-12-05T02:51:52.850Z,20.27
2022-12-05T02:54:27.324Z,19.50
2022-12-05T02:56:59.155Z,19.20
2022-12-05T02:59:29.958Z,20.38
2022-12-05T03:02:05.634Z,19.20
2022-12-05T03:04:37.006Z,19.37
2022-12-05T03:07:12.964Z,19.67
2022-12-05T03:09:48.294Z,20.40
2022-12-05T03:12:25.406Z,19.47
2022-12-05T03:14:59.483Z,19.95
2022-12-05T03:17:35.727Z,21.20
2022-12-05T03:20:10.013Z,19.63
2022-12-05T03:22:49.930Z,19.80
2022-12-05T03:25:21.539Z,18.57
2022-12-05T03:27:56.007Z,19.47
2022-12-05T03:30:26.977Z,17.57
2022-12-05T03:33:09.450Z,18.93
2022-12-05T03:35:46.490Z,19.70
2022-12-05T03:38:19.799Z,20.23
2022-12-05T03:40:55.855Z,18.80
2022-12-05T03:43:37.127Z,20.00
2022-12-05T03:46:12.190Z,21.67
2022-12-05T03:48:55.032Z,19.05
2022-12-05T03:51:30.902Z,20.47
2022-12-05T03:54:06.192Z,19.53
2022-12-05T03:56:41.054Z,20.73
2022-12-05T03:59:19.290Z,20.73
2022-12-05T04:01:51.519Z,20.05
2022-12-05T04:04:30.889Z,20.90
2022-12-05T04:07:05.997Z,19.75
2022-12-05T04:09:41.110Z,18.80
2022-12-05T04:12:19.874Z,20.70
2022-12-05T04:14:54.443Z,19.40
2022-12-05T04:17:30.513Z,19.23
2022-12-05T04:20:19.709Z,19.50
2022-12-05T04:22:51.127Z,18.33
2022-12-05T04:25:35.050Z,19.23
2022-12-05T04:28:23.722Z,18.90
2022-12-05T04:31:06.198Z,17.70
2022-12-05T04:33:44.181Z,19.17
2022-12-05T04:36:22.122Z,18.60
2022-12-05T04:38:57.780Z,19.63
2022-12-05T04:41:31.663Z,17.50
2022-12-05T04:44:08.514Z,19.10
2022-12-05T04:46:40.907Z,19.35
2022-12-05T04:49:15.323Z,18.53
2022-12-05T04:51:52.992Z,19.10
2022-12-05T04:54:29.133Z,18.60
2022-12-05T04:57:07.863Z,18.67
2022-12-05T04:59:38.790Z,18.40
2022-12-05T05:02:16.562Z,18.50
2022-12-05T05:04:51.083Z,19.23
2022-12-05T05:07:25.124Z,18.93
2022-12-05T05:09:56.153Z,17.50
2022-12-05T05:12:27.164Z,18.53
2022-12-05T05:14:57.935Z,18.73
2022-12-05T05:17:28.912Z,17.10
2022-12-05T05:20:22.387Z,17.73
2022-12-05T05:22:58.354Z,16.60
2022-12-05T05:25:29.469Z,18.53
2022-12-05T05:28:00.220Z,17.47
2022-12-05T05:30:31.571Z,18.13
2022-12-05T05:33:02.640Z,17.37
2022-12-05T05:35:33.698Z,19.27
2022-12-05T05:38:11.482Z,18.00
2022-12-05T05:40:42.276Z,18.00
2022-12-05T05:43:13.180Z,18.70
2022-12-05T05:45:45.346Z,19.10
2022-12-05T05:48:18.860Z,17.87
2022-12-05T05:50:51.002Z,18.87
2022-12-05T05:53:24.401Z,18.60
2022-12-05T05:55:55.153Z,19.10
2022-12-05T05:58:25.947Z,19.90
2022-12-05T06:00:57.159Z,16.93
2022-12-05T06:03:28.133Z,18.13
2022-12-05T06:06:02.822Z,19.20
2022-12-05T06:08:38.322Z,17.97
2022-12-05T06:11:10.494Z,18.20
2022-12-05T06:13:41.767Z,17.63
2022-12-05T06:16:17.103Z,18.50
2022-12-05T06:18:49.235Z,18.63
2022-12-05T06:21:20.192Z,17.80
2022-12-05T06:23:54.203Z,18.57
2022-12-05T06:26:25.687Z,17.02
2022-12-05T06:28:56.879Z,18.00
2022-12-05T06:31:31.732Z,16.13
2022-12-05T06:34:05.371Z,17.00
2022-12-05T06:36:39.448Z,17.45
2022-12-05T06:39:12.845Z,18.17
2022-12-05T06:41:43.618Z,17.38
2022-12-05T06:44:14.974Z,16.87
2022-12-05T06:46:45.750Z,17.65
2022-12-05T06:49:16.601Z,18.10
2022-12-05T06:51:47.412Z,16.83
2022-12-05T06:54:21.007Z,16.40
2022-12-05T06:56:51.730Z,17.00
2022-12-05T06:59:22.499Z,17.17
2022-12-05T07:01:51.807Z,16.70
2022-12-05T07:04:26.211Z,15.85
2022-12-05T07:07:00.943Z,17.38
2022-12-05T07:09:49.257Z,16.15
2022-12-05T07:12:21.909Z,15.50
2022-12-05T07:14:53.329Z,16.13
2022-12-05T07:17:24.617Z,16.88
2022-12-05T07:19:56.669Z,16.77
2022-12-05T07:22:27.838Z,15.90
2022-12-05T07:25:01.296Z,15.98
2022-12-05T07:27:35.829Z,16.50
2022-12-05T07:30:07.713Z,16.40
2022-12-05T07:32:39.045Z,16.50
2022-12-05T07:35:10.584Z,15.13
2022-12-05T07:37:41.336Z,14.93
2022-12-05T07:40:16.146Z,15.98
2022-12-05T07:42:46.922Z,17.08
2022-12-05T07:45:18.109Z,16.10
2022-12-05T07:47:49.023Z,15.95
2022-12-05T07:50:20.102Z,16.45
2022-12-05T07:52:51.267Z,15.55
2022-12-05T07:55:24.763Z,15.85
2022-12-05T07:57:55.546Z,15.70
2022-12-05T08:00:26.990Z,16.20
2022-12-05T08:02:59.535Z,15.18
2022-12-05T08:05:30.678Z,16.10
2022-12-05T08:08:01.476Z,15.13
2022-12-05T08:10:35.098Z,14.45
2022-12-05T08:13:08.009Z,16.10
2022-12-05T08:15:46.392Z,15.40
2022-12-05T08:18:17.219Z,15.02
2022-12-05T08:20:47.971Z,15.07
2022-12-05T08:23:18.771Z,15.25
2022-12-05T08:25:54.634Z,14.52
2022-12-05T08:28:25.549Z,15.17
2022-12-05T08:30:56.822Z,15.23
2022-12-05T08:33:27.636Z,14.85
2022-12-05T08:35:58.693Z,15.30
2022-12-05T08:38:29.477Z,15.50
2022-12-05T08:41:04.731Z,15.23
2022-12-05T08:43:36.372Z,15.20
2022-12-05T08:46:07.684Z,14.90
2022-12-05T08:48:39.224Z,16.20
2022-12-05T08:51:11.656Z,15.37
2022-12-05T08:53:44.993Z,15.07
2022-12-05T08:56:23.444Z,14.80
2022-12-05T08:59:04.736Z,15.87
2022-12-05T09:01:38.816Z,15.30
2022-12-05T09:04:10.298Z,14.83
2022-12-05T09:06:42.417Z,15.73
2022-12-05T09:09:15.333Z,15.50
2022-12-05T09:11:51.060Z,16.90
2022-12-05T09:14:24.345Z,17.03
2022-12-05T09:16:55.173Z,19.13
2022-12-05T09:19:27.630Z,18.10
2022-12-05T09:22:03.391Z,19.07
2022-12-05T09:24:35.877Z,19.77
2022-12-05T09:27:09.593Z,20.20
2022-12-05T09:29:41.115Z,18.75
2022-12-05T09:32:12.613Z,19.17
2022-12-05T09:34:43.546Z,19.00
2022-12-05T09:37:37.658Z,19.30
2022-12-05T09:40:07.610Z,19.40
2022-12-05T09:42:52.351Z,19.30
2022-12-05T09:45:28.657Z,18.35
2022-12-05T09:48:03.027Z,18.10
2022-12-05T09:50:37.766Z,18.53
2022-12-05T09:53:14.112Z,19.08
2022-12-05T09:55:51.509Z,18.53
2022-12-05T09:58:29.628Z,19.20
2022-12-05T10:01:11.275Z,17.70
2022-12-05T10:03:49.720Z,18.13
2022-12-05T10:06:24.872Z,16.83
2022-12-05T10:09:13.615Z,16.17
2022-12-05T10:11:50.464Z,19.47
2022-12-05T10:14:32.918Z,16.30
2022-12-05T10:17:11.443Z,17.10
2022-12-05T10:19:47.000Z,16.13
2022-12-05T10:22:21.801Z,16.57
2022-12-05T10:24:56.173Z,15.82
2022-12-05T10:27:40.008Z,16.07
2022-12-05T10:30:18.007Z,16.17
2022-12-05T10:32:55.052Z,16.60
2022-12-05T10:35:28.183Z,16.37
2022-12-05T10:38:01.731Z,18.23
2022-12-05T10:40:38.695Z,18.10
2022-12-05T10:43:11.059Z,16.97
2022-12-05T10:45:48.192Z,18.17
2022-12-05T10:48:20.857Z,19.25
2022-12-05T10:50:54.608Z,18.37
2022-12-05T10:53:31.308Z,19.50
2022-12-05T10:58:58.499Z,18.93
2022-12-05T11:01:33.982Z,19.70
2022-12-05T11:04:13.920Z,18.88
2022-12-05T11:06:53.929Z,18.70
2022-12-05T11:09:26.831Z,17.77
2022-12-05T11:12:06.371Z,18.33
2022-12-05T11:14:39.900Z,17.63
2022-12-05T11:17:27.525Z,29.30
2022-12-05T11:19:58.319Z,27.75
2022-12-05T11:22:38.662Z,38.05
2022-12-05T11:25:28.036Z,30.70
2022-12-05T11:28:03.261Z,23.87
2022-12-05T11:30:34.122Z,20.70
2022-12-05T11:33:23.862Z,19.25
2022-12-05T11:35:57.372Z,19.35
2022-12-05T11:38:32.781Z,17.40
2022-12-05T11:41:22.259Z,17.27
2022-12-05T11:44:08.209Z,18.95
2022-12-05T11:46:49.835Z,19.83
2022-12-05T11:49:47.916Z,19.35
2022-12-05T11:52:34.745Z,18.77
2022-12-05T11:55:19.317Z,18.10
2022-12-05T11:58:15.002Z,17.80
2022-12-05T12:00:59.452Z,16.63
2022-12-05T12:04:01.934Z,17.48
2022-12-05T12:06:46.448Z,17.55
2022-12-05T12:09:36.937Z,21.00
2022-12-05T12:12:17.586Z,21.35
2022-12-05T12:14:57.567Z,18.45
2022-12-05T12:17:36.831Z,19.00
2022-12-05T12:20:35.119Z,18.47
2022-12-05T12:23:26.164Z,20.03
2022-12-05T12:26:10.585Z,16.88
2022-12-05T12:28:46.592Z,17.20
2022-12-05T12:31:55.274Z,20.10
2022-12-05T12:34:39.660Z,24.33
2022-12-05T12:37:19.784Z,22.42
2022-12-05T12:39:55.453Z,22.53
2022-12-05T12:42:28.937Z,24.30
2022-12-05T12:45:46.035Z,21.30
2022-12-05T12:48:31.464Z,20.63
2022-12-05T12:51:05.398Z,21.92
2022-12-05T12:53:59.486Z,21.60
2022-12-05T12:56:42.709Z,20.42
2022-12-05T12:59:30.997Z,19.90
2022-12-05T13:02:08.318Z,19.75
2022-12-05T13:04:46.693Z,18.13
2022-12-05T13:07:26.050Z,17.90
2022-12-05T13:10:02.219Z,17.95
2022-12-05T13:12:41.914Z,18.42
2022-12-05T13:15:18.086Z,16.75
2022-12-05T13:17:50.648Z,17.33
2022-12-05T13:20:24.504Z,16.35
2022-12-05T13:22:56.476Z,15.93
2022-12-05T13:25:33.645Z,16.75
2022-12-05T13:28:12.567Z,16.60
2022-12-05T13:31:01.976Z,16.70
2022-12-05T13:33:38.713Z,17.80
2022-12-05T13:36:25.237Z,16.10
2022-12-05T13:39:14.108Z,17.25
2022-12-05T13:41:59.785Z,18.80
2022-12-05T13:44:39.062Z,16.90
2022-12-05T13:47:29.455Z,17.57
2022-12-05T13:50:07.241Z,16.92
2022-12-05T13:52:45.447Z,17.90
2022-12-05T13:55:25.318Z,17.50
2022-12-05T13:57:57.832Z,17.50
2022-12-05T14:00:40.450Z,16.80
2022-12-05T14:03:21.971Z,17.98
2022-12-05T14:05:55.936Z,18.00
2022-12-05T14:09:06.166Z,17.42
2022-12-05T14:11:36.910Z,17.98
2022-12-05T14:14:13.063Z,17.33
2022-12-05T14:16:54.945Z,18.30
2022-12-05T14:20:09.042Z,18.50
2022-12-05T14:23:07.440Z,18.73
2022-12-05T14:25:57.928Z,18.92
2022-12-05T14:28:44.067Z,19.40
2022-12-05T14:31:34.478Z,18.20
2022-12-05T14:34:18.996Z,18.63
2022-12-05T14:36:58.818Z,18.00
2022-12-05T14:39:43.248Z,19.45
2022-12-05T14:42:27.972Z,18.88
2022-12-05T14:45:02.246Z,18.85
2022-12-05T14:47:35.698Z,19.08
2022-12-05T14:50:36.830Z,19.50
2022-12-05T14:53:30.257Z,19.80
2022-12-05T14:56:13.429Z,19.77
2022-12-05T14:58:49.017Z,21.38
2022-12-05T15:01:25.848Z,21.83
2022-12-05T15:04:21.416Z,20.38
2022-12-05T15:06:58.494Z,21.15
2022-12-05T15:09:55.625Z,24.95
2022-12-05T15:12:29.653Z,24.83
2022-12-05T15:15:07.168Z,25.70
2022-12-05T15:17:44.690Z,27.00
2022-12-05T15:20:22.399Z,23.13
2022-12-05T15:22:55.947Z,20.70
2022-12-05T15:25:32.319Z,19.65
2022-12-05T15:28:07.341Z,19.70
2022-12-05T15:30:40.864Z,17.25
2022-12-05T15:33:15.359Z,17.35
2022-12-05T15:35:51.668Z,16.63
2022-12-05T15:38:30.607Z,17.40
2022-12-05T15:41:01.847Z,17.27
2022-12-05T15:43:34.525Z,17.35
2022-12-05T15:46:24.416Z,17.90
2022-12-05T15:48:56.852Z,17.65
2022-12-05T15:51:34.585Z,18.40
2022-12-05T15:54:14.427Z,17.27
2022-12-05T15:56:50.618Z,17.05
2022-12-05T15:59:24.770Z,15.82
2022-12-05T16:02:02.400Z,16.67
2022-12-05T16:04:36.581Z,16.48
2022-12-05T16:07:11.641Z,15.32
2022-12-05T16:09:47.400Z,15.65
2022-12-05T16:12:28.902Z,16.30
2022-12-05T16:15:04.900Z,16.65
2022-12-05T16:17:45.414Z,21.33
2022-12-05T16:20:32.813Z,20.40
2022-12-05T16:23:05.870Z,20.70
2022-12-05T16:25:39.888Z,19.08
2022-12-05T16:28:20.171Z,17.38
2022-12-05T16:31:04.854Z,18.20
2022-12-05T16:33:40.285Z,16.42
2022-12-05T16:36:16.314Z,15.00
2022-12-05T16:38:47.349Z,16.45
2022-12-05T16:41:25.331Z,17.05
2022-12-05T16:43:58.461Z,16.17
2022-12-05T16:46:45.811Z,16.58
2022-12-05T16:49:28.289Z,23.63
2022-12-05T16:52:02.852Z,24.25
2022-12-05T16:54:33.796Z,25.92
2022-12-05T16:57:07.662Z,21.83
2022-12-05T16:59:42.040Z,21.67
2022-12-05T17:02:17.170Z,16.98
2022-12-05T17:04:48.547Z,14.38
2022-12-05T17:07:19.267Z,16.38
2022-12-05T17:09:50.043Z,16.23
2022-12-05T17:12:27.023Z,15.13
2022-12-05T17:14:58.446Z,12.60
2022-12-05T17:17:30.390Z,14.65
2022-12-05T17:20:03.348Z,15.30
2022-12-05T17:22:34.480Z,15.05
2022-12-05T17:25:19.333Z,13.90
2022-12-05T17:27:54.070Z,15.30
2022-12-05T17:30:24.854Z,16.52
2022-12-05T17:32:55.853Z,15.13
2022-12-05T17:35:30.580Z,16.55
2022-12-05T17:38:02.394Z,14.93
2022-12-05T17:40:33.224Z,14.70
2022-12-05T17:43:09.786Z,13.43
2022-12-05T17:45:40.539Z,13.48
2022-12-05T17:48:17.535Z,15.73
2022-12-05T17:50:50.872Z,14.75
2022-12-05T17:53:25.167Z,14.00
2022-12-05T17:55:55.981Z,13.70
2022-12-05T17:58:29.326Z,14.82
2022-12-05T18:01:01.288Z,13.32
2022-12-05T18:03:32.256Z,12.85
2022-12-05T18:06:03.878Z,14.40
2022-12-05T18:08:34.997Z,14.45
2022-12-05T18:11:08.304Z,13.60
2022-12-05T18:13:41.825Z,12.35
2022-12-05T18:16:12.655Z,11.10
2022-12-05T18:18:45.586Z,10.75
2022-12-05T18:21:16.346Z,18.20
2022-12-05T18:23:49.409Z,15.50
2022-12-05T18:26:20.691Z,11.52
2022-12-05T18:28:56.802Z,11.65
2022-12-05T18:31:28.305Z,12.63
2022-12-05T18:34:00.263Z,13.98
2022-12-05T18:36:31.040Z,12.77
2022-12-05T18:39:02.727Z,16.45
2022-12-05T18:41:33.640Z,13.65
2022-12-05T18:44:08.353Z,12.55
2022-12-05T18:46:39.835Z,11.68
2022-12-05T18:49:10.962Z,11.65
2022-12-05T18:51:44.104Z,13.38
2022-12-05T18:54:19.507Z,12.23
2022-12-05T18:56:52.734Z,12.15
2022-12-05T18:59:26.222Z,12.10
2022-12-05T19:01:59.771Z,13.50
2022-12-05T19:04:32.479Z,14.30
2022-12-05T19:07:04.603Z,17.77
2022-12-05T19:09:40.505Z,12.68
2022-12-05T19:12:11.337Z,13.23
2022-12-05T19:14:45.629Z,12.30
2022-12-05T19:17:16.506Z,12.00
2022-12-05T19:19:47.301Z,13.05
2022-12-05T19:22:18.515Z,17.45
2022-12-05T19:24:49.569Z,14.77
2022-12-05T19:27:25.270Z,13.77
2022-12-05T19:29:59.015Z,13.57
2022-12-05T19:32:30.101Z,13.75
2022-12-05T19:35:01.117Z,13.82
2022-12-05T19:37:34.222Z,12.35
2022-12-05T19:40:05.087Z,13.93
2022-12-05T19:42:36.009Z,12.50
2022-12-05T19:45:14.987Z,12.82
2022-12-05T19:47:49.629Z,12.80
2022-12-05T19:50:20.499Z,14.00
2022-12-05T19:52:51.478Z,13.27
2022-12-05T19:55:25.023Z,13.07
2022-12-05T19:57:55.752Z,12.20
2022-12-05T20:00:29.434Z,11.50
2022-12-05T20:03:00.556Z,11.07
2022-12-05T20:05:34.316Z,11.38
2022-12-05T20:08:05.258Z,11.70
2022-12-05T20:10:39.882Z,9.63
2022-12-05T20:13:44.835Z,10.88
2022-12-05T20:16:07.327Z,11.55
2022-12-05T20:18:40.422Z,11.40
2022-12-05T20:21:16.099Z,12.52
2022-12-05T20:23:47.602Z,11.10
2022-12-05T20:26:20.646Z,12.52
2022-12-05T20:28:51.685Z,12.80
2022-12-05T20:31:30.083Z,11.10
2022-12-05T20:34:04.091Z,11.45
2022-12-05T20:36:37.071Z,12.40
2022-12-05T20:39:09.861Z,11.85
2022-12-05T20:41:41.327Z,12.75
2022-12-05T20:44:16.048Z,12.45
2022-12-05T20:46:52.598Z,11.25
2022-12-05T20:49:23.495Z,11.35
2022-12-05T20:51:54.304Z,12.10
2022-12-05T20:54:25.104Z,12.82
2022-12-05T20:56:56.559Z,13.48
2022-12-05T20:59:27.734Z,13.32
2022-12-05T21:02:03.609Z,13.50
2022-12-05T21:04:38.981Z,14.13
2022-12-05T21:07:09.738Z,13.63
2022-12-05T21:09:42.373Z,13.80
2022-12-05T21:12:13.197Z,15.48
2022-12-05T21:14:43.940Z,13.90
2022-12-05T21:17:17.295Z,14.55
2022-12-05T21:19:48.237Z,14.43
2022-12-05T21:22:18.954Z,14.20
2022-12-05T21:24:50.103Z,13.57
2022-12-05T21:27:20.819Z,13.02
2022-12-05T21:29:51.543Z,13.13
2022-12-05T21:32:26.501Z,12.93
2022-12-05T21:34:58.543Z,13.13
2022-12-05T21:37:29.359Z,13.10
2022-12-05T21:40:00.467Z,12.13
2022-12-05T21:42:34.762Z,12.90
2022-12-05T21:45:06.387Z,13.15
2022-12-05T21:47:39.787Z,12.82
2022-12-05T21:50:11.767Z,12.88
2022-12-05T21:52:43.855Z,12.85
2022-12-05T21:55:14.569Z,12.48
2022-12-05T21:57:45.377Z,11.40
2022-12-05T22:00:17.309Z,11.10
2022-12-05T22:02:50.759Z,10.75
2022-12-05T22:05:24.637Z,10.52
2022-12-05T22:07:55.455Z,11.55
2022-12-05T22:10:26.335Z,10.57
2022-12-05T22:12:57.039Z,11.23
2022-12-05T22:15:31.497Z,10.85
2022-12-05T22:18:04.910Z,11.27
2022-12-05T22:20:36.729Z,11.60
2022-12-05T22:23:10.145Z,12.00
2022-12-05T22:25:43.205Z,11.68
2022-12-05T22:28:13.960Z,12.57
2022-12-05T22:30:49.489Z,12.77
2022-12-05T22:33:26.795Z,12.30
2022-12-05T22:35:59.548Z,12.40
2022-12-05T22:38:32.998Z,12.27
2022-12-05T22:41:05.522Z,12.65
2022-12-05T22:43:37.940Z,13.05
2022-12-05T22:46:09.861Z,12.70
2022-12-05T22:48:45.407Z,11.93
2022-12-05T22:51:35.128Z,12.55
2022-12-05T22:54:06.312Z,12.20
2022-12-05T22:56:37.370Z,11.93
2022-12-05T22:59:12.973Z,11.95
2022-12-05T23:01:45.207Z,13.55
2022-12-05T23:04:20.192Z,11.98
2022-12-05T23:06:51.233Z,12.30
2022-12-05T23:09:22.167Z,12.60
2022-12-05T23:11:53.309Z,12.20
2022-12-05T23:14:24.312Z,12.10
2022-12-05T23:16:55.535Z,11.93
2022-12-05T23:19:30.436Z,11.63
2022-12-05T23:22:03.816Z,11.40
2022-12-05T23:24:37.756Z,11.00
2022-12-05T23:27:09.021Z,11.85
2022-12-05T23:29:40.199Z,11.65
2022-12-05T23:32:11.325Z,11.68
2022-12-05T23:34:44.884Z,11.90
2022-12-05T23:37:15.825Z,12.18
2022-12-05T23:39:47.444Z,12.23
2022-12-05T23:42:18.319Z,12.70
2022-12-05T23:44:49.230Z,11.68
2022-12-05T23:47:20.267Z,12.35
2022-12-05T23:49:53.840Z,12.90
2022-12-05T23:52:24.719Z,13.18
2022-12-05T23:54:55.666Z,12.93
2022-12-05T23:57:26.638Z,12.57
2022-12-05T23:59:58.152Z,14.68
